Time;durP1;ratioP1;P1;durP2;ratioP2;P2;SDS_P1;SDS_P2;PMS_P1;PMS_P2;Temp;Humidity;BMP_temperature;BMP_pressure;BME280_temperature;BME280_humidity;BME280_pressure;Samples;Min_cycle;Max_cycle;Signal;HPM_P1;HPM_P2
2023/09/28 00:00:37;;;;;;;6.15;4.93;;;13.70;99.90;;;;;;4194208;28;20104;-61
2023/09/28 00:02:38;;;;;;;7.72;5.40;;;13.70;99.90;;;;;;4192401;28;20102;-62
2023/09/28 00:04:40;;;;;;;7.97;5.40;;;13.60;99.90;;;;;;4192592;28;20499;-62
2023/09/28 00:06:41;;;;;;;14.02;5.60;;;13.60;99.90;;;;;;4193310;28;20032;-60
2023/09/28 00:08:42;;;;;;;10.90;5.95;;;13.60;99.90;;;;;;4192099;28;20037;-60
2023/09/28 00:10:43;;;;;;;7.33;5.40;;;13.50;99.90;;;;;;4193163;28;20044;-61
2023/09/28 00:12:46;;;;;;;11.77;5.80;;;13.50;99.90;;;;;;4192052;28;20045;-62
2023/09/28 00:14:47;;;;;;;10.03;5.50;;;13.50;99.90;;;;;;4193833;28;20467;-59
2023/09/28 00:16:48;;;;;;;11.90;6.87;;;13.50;99.90;;;;;;4192872;28;20514;-60
2023/09/28 00:18:49;;;;;;;11.87;5.83;;;13.40;99.90;;;;;;4194002;28;20032;-60
2023/09/28 00:20:51;;;;;;;11.60;5.93;;;13.40;99.90;;;;;;4193051;28;20040;-61
2023/09/28 00:22:54;;;;;;;7.40;5.97;;;13.40;99.90;;;;;;4193236;28;20095;-59
2023/09/28 00:24:55;;;;;;;10.87;5.97;;;13.40;99.90;;;;;;4190998;28;20036;-60
2023/09/28 00:26:56;;;;;;;12.20;6.00;;;13.40;99.90;;;;;;4192772;28;20553;-62
2023/09/28 00:28:58;;;;;;;11.90;6.17;;;13.30;99.90;;;;;;4192760;28;20534;-59
2023/09/28 00:30:59;;;;;;;10.87;6.00;;;13.30;99.90;;;;;;4196261;28;20384;-60
2023/09/28 00:33:00;;;;;;;12.63;6.13;;;13.30;99.90;;;;;;4195296;28;20464;-60
2023/09/28 00:35:04;;;;;;;9.25;5.38;;;13.30;99.90;;;;;;4197104;28;20468;-62
2023/09/28 00:37:05;;;;;;;14.00;6.43;;;13.30;99.90;;;;;;4195976;28;20074;-61
2023/09/28 00:39:08;;;;;;;7.57;5.50;;;13.30;99.90;;;;;;4196523;28;20113;-61
2023/09/28 00:41:09;;;;;;;10.10;6.30;;;13.30;99.90;;;;;;4195864;28;20132;-61
2023/09/28 00:43:10;;;;;;;11.53;5.93;;;13.30;99.90;;;;;;4196134;28;20447;-61
2023/09/28 00:45:12;;;;;;;8.40;5.47;;;13.30;99.90;;;;;;4196731;28;20024;-61
2023/09/28 00:47:15;;;;;;;9.00;5.53;;;13.20;99.90;;;;;;4194974;28;20040;-61
2023/09/28 00:49:17;;;;;;;13.30;6.50;;;13.20;99.90;;;;;;4195697;28;20050;-61
2023/09/28 00:51:19;;;;;;;15.97;5.40;;;13.20;99.90;;;;;;4195704;28;20029;-59
2023/09/28 00:53:21;;;;;;;8.17;5.60;;;13.20;99.90;;;;;;4195888;28;20048;-60
2023/09/28 00:55:24;;;;;;;9.40;5.73;;;13.20;99.90;;;;;;4194215;28;20052;-62
2023/09/28 00:57:26;;;;;;;10.37;5.30;;;13.20;99.90;;;;;;4194211;28;20053;-60
2023/09/28 00:59:27;;;;;;;9.33;5.37;;;13.20;99.90;;;;;;4194439;28;20074;-61
2023/09/28 01:01:29;;;;;;;11.20;5.83;;;13.10;99.90;;;;;;4194529;28;20090;-61
2023/09/28 01:03:31;;;;;;;7.90;5.53;;;13.10;99.90;;;;;;4195291;28;20032;-61
2023/09/28 01:05:42;;;;;;;8.37;5.57;;;13.10;99.90;;;;;;4196235;28;20222;-60
2023/09/28 01:07:43;;;;;;;8.47;5.27;;;13.00;99.90;;;;;;4195513;28;20017;-60
2023/09/28 01:09:44;;;;;;;9.90;5.27;;;12.90;99.90;;;;;;4194656;28;20518;-58
2023/09/28 01:11:45;;;;;;;10.37;5.77;;;12.90;99.90;;;;;;4194671;28;20073;-59
2023/09/28 01:13:47;;;;;;;9.63;5.57;;;12.90;99.90;;;;;;4196124;28;20033;-60
2023/09/28 01:15:52;;;;;;;10.37;5.20;;;12.90;99.90;;;;;;4195041;28;20093;-60
2023/09/28 01:17:53;;;;;;;7.43;5.07;;;12.80;99.90;;;;;;4195851;28;20073;-59
2023/09/28 01:19:55;;;;;;;9.57;5.83;;;12.90;99.90;;;;;;4195435;28;20691;-59
2023/09/28 01:21:56;;;;;;;7.87;5.40;;;12.80;99.90;;;;;;4195391;28;20098;-59
2023/09/28 01:23:57;;;;;;;10.23;5.60;;;12.80;99.90;;;;;;4196157;28;20032;-60
2023/09/28 01:25:58;;;;;;;8.50;5.63;;;12.80;99.90;;;;;;4195233;28;20044;-60
2023/09/28 01:28:00;;;;;;;7.67;5.50;;;12.80;99.90;;;;;;4195604;28;20056;-60
2023/09/28 01:30:03;;;;;;;12.07;5.57;;;12.90;99.90;;;;;;4193930;28;20106;-60
2023/09/28 01:32:04;;;;;;;9.40;5.57;;;12.80;99.90;;;;;;4195823;28;20048;-60
2023/09/28 01:34:06;;;;;;;9.87;5.37;;;12.90;99.90;;;;;;4194933;28;20105;-60
2023/09/28 01:36:07;;;;;;;6.80;5.10;;;12.90;99.90;;;;;;4196192;28;20094;-60
2023/09/28 01:38:24;;;;;;;12.90;6.00;;;12.90;99.90;;;;;;4195003;28;20082;-61
2023/09/28 01:40:25;;;;;;;13.13;4.93;;;12.90;99.90;;;;;;4195439;28;20525;-60
2023/09/28 01:42:26;;;;;;;10.00;5.87;;;12.80;99.90;;;;;;4192946;28;20052;-60
2023/09/28 01:44:27;;;;;;;20.57;6.20;;;12.80;99.90;;;;;;4194376;28;20044;-58
2023/09/28 01:46:28;;;;;;;10.37;5.43;;;12.90;99.90;;;;;;4194025;28;20086;-61
2023/09/28 01:48:29;;;;;;;13.00;5.37;;;12.80;99.90;;;;;;4194659;28;20098;-62
2023/09/28 01:50:31;;;;;;;8.17;5.97;;;12.90;99.90;;;;;;4193319;28;20024;-61
2023/09/28 01:52:32;;;;;;;9.50;5.57;;;12.90;99.90;;;;;;4194799;28;20481;-63
2023/09/28 01:54:33;;;;;;;8.73;5.33;;;12.90;99.90;;;;;;4194266;28;20060;-61
2023/09/28 01:56:34;;;;;;;8.53;5.53;;;12.80;99.90;;;;;;4194173;28;20089;-62
2023/09/28 01:58:35;;;;;;;7.73;5.43;;;12.80;99.90;;;;;;4194878;28;20381;-63
2023/09/28 02:00:36;;;;;;;12.80;5.83;;;12.90;99.90;;;;;;4194051;28;20415;-62
2023/09/28 02:02:38;;;;;;;9.47;6.10;;;12.80;99.90;;;;;;4188911;28;20098;-62
2023/09/28 02:04:39;;;;;;;10.83;6.33;;;12.80;99.90;;;;;;4193571;28;20032;-62
2023/09/28 02:06:40;;;;;;;9.20;5.30;;;12.70;99.90;;;;;;4195980;28;20107;-59
2023/09/28 02:08:41;;;;;;;12.77;5.47;;;12.60;99.90;;;;;;4194398;28;20021;-61
2023/09/28 02:10:42;;;;;;;11.23;5.70;;;12.50;99.90;;;;;;4195240;28;20131;-62
2023/09/28 02:12:44;;;;;;;11.53;5.70;;;12.40;99.90;;;;;;4193889;28;20036;-61
2023/09/28 02:14:45;;;;;;;9.27;5.20;;;12.40;99.90;;;;;;4195333;28;20044;-62
2023/09/28 02:16:46;;;;;;;14.30;5.40;;;12.30;99.90;;;;;;4194140;28;20117;-61
2023/09/28 02:18:47;;;;;;;6.90;4.90;;;12.30;99.90;;;;;;4194175;28;20036;-62
2023/09/28 02:20:48;;;;;;;8.20;5.47;;;12.30;99.90;;;;;;4194740;28;20066;-58
2023/09/28 02:22:52;;;;;;;9.30;6.47;;;12.30;99.90;;;;;;4193439;28;20044;-62
2023/09/28 02:24:53;;;;;;;10.10;5.80;;;12.20;99.90;;;;;;4194157;28;20044;-61
2023/09/28 02:26:55;;;;;;;10.03;5.67;;;12.20;99.90;;;;;;4194213;28;20334;-61
2023/09/28 02:28:57;;;;;;;9.57;6.27;;;12.20;99.90;;;;;;4195707;28;20122;-60
2023/09/28 02:31:08;;;;;;;11.93;5.90;;;12.20;99.90;;;;;;4193932;28;20040;-59
2023/09/28 02:33:10;;;;;;;12.23;5.90;;;12.20;99.90;;;;;;4194043;28;20451;-60
2023/09/28 02:35:13;;;;;;;11.37;6.60;;;12.20;99.90;;;;;;4192562;28;20045;-61
2023/09/28 02:37:14;;;;;;;13.37;6.40;;;12.10;99.90;;;;;;4190528;28;20086;-60
2023/09/28 02:39:16;;;;;;;11.77;6.13;;;12.10;99.90;;;;;;4177323;28;20102;-60
2023/09/28 02:41:18;;;;;;;8.47;6.03;;;12.00;99.90;;;;;;4177962;28;20037;-60
2023/09/28 02:43:19;;;;;;;11.93;6.20;;;12.10;99.90;;;;;;4192131;28;20037;-62
2023/09/28 02:45:20;;;;;;;14.13;5.80;;;12.00;99.90;;;;;;4194895;28;20443;-63
2023/09/28 02:47:21;;;;;;;12.63;6.37;;;12.10;99.90;;;;;;4192954;28;20147;-60
2023/09/28 02:49:23;;;;;;;15.33;6.20;;;12.10;99.90;;;;;;4193988;28;20048;-61
2023/09/28 02:51:24;;;;;;;8.43;5.57;;;12.10;99.90;;;;;;4193767;28;20358;-60
2023/09/28 02:53:26;;;;;;;9.80;6.13;;;12.10;99.90;;;;;;4194329;28;20033;-61
2023/09/28 02:55:27;;;;;;;9.67;6.03;;;12.20;99.90;;;;;;4194011;28;20546;-61
2023/09/28 02:57:28;;;;;;;12.43;6.23;;;12.20;99.90;;;;;;4193414;28;20439;-61
2023/09/28 02:59:29;;;;;;;10.97;6.87;;;12.20;99.90;;;;;;4193816;28;20560;-62
2023/09/28 03:01:31;;;;;;;9.37;5.90;;;12.30;99.90;;;;;;4193982;28;20121;-63
2023/09/28 03:03:32;;;;;;;14.60;6.40;;;12.30;99.90;;;;;;4193992;28;20098;-62
2023/09/28 03:05:33;;;;;;;10.10;5.60;;;12.40;99.90;;;;;;4191809;28;20098;-62
2023/09/28 03:07:35;;;;;;;9.90;5.80;;;12.40;99.90;;;;;;4194760;28;20089;-63
2023/09/28 03:09:38;;;;;;;10.63;6.53;;;12.30;99.90;;;;;;4190831;28;20029;-62
2023/09/28 03:11:39;;;;;;;11.73;5.67;;;12.30;99.90;;;;;;4194756;28;20094;-61
2023/09/28 03:13:40;;;;;;;9.60;6.10;;;12.30;99.90;;;;;;4192617;28;20386;-62
2023/09/28 03:15:43;;;;;;;8.93;6.07;;;12.30;99.90;;;;;;4194367;28;20419;-61
2023/09/28 03:17:46;;;;;;;11.10;6.30;;;12.30;99.90;;;;;;4193023;28;20028;-61
2023/09/28 03:19:47;;;;;;;9.73;6.53;;;12.20;99.90;;;;;;4193963;28;20443;-61
2023/09/28 03:21:49;;;;;;;11.83;6.40;;;12.20;99.90;;;;;;4193148;28;20037;-61
2023/09/28 03:23:50;;;;;;;11.67;6.27;;;12.20;99.90;;;;;;4194346;28;20427;-63
2023/09/28 03:25:56;;;;;;;9.53;6.93;;;12.20;99.90;;;;;;4192295;28;20070;-61
2023/09/28 03:27:57;;;;;;;10.47;5.60;;;12.20;99.90;;;;;;4193291;28;20052;-63
2023/09/28 03:29:58;;;;;;;8.30;6.07;;;12.20;99.90;;;;;;4193531;28;20415;-61
2023/09/28 03:31:59;;;;;;;10.90;6.60;;;12.20;99.90;;;;;;4191313;28;20041;-62
2023/09/28 03:34:00;;;;;;;11.93;6.23;;;12.20;99.90;;;;;;4192684;28;20045;-60
2023/09/28 03:36:01;;;;;;;10.03;6.50;;;12.20;99.90;;;;;;4190769;28;20048;-63
2023/09/28 03:38:02;;;;;;;13.37;6.50;;;12.20;99.90;;;;;;4194241;28;20028;-62
2023/09/28 03:40:13;;;;;;;12.00;6.07;;;12.20;99.90;;;;;;4192163;28;20460;-64
2023/09/28 03:42:14;;;;;;;9.87;5.37;;;12.20;99.90;;;;;;4192141;28;20110;-62
2023/09/28 03:44:15;;;;;;;9.27;5.47;;;12.30;99.90;;;;;;4192677;28;20431;-61
2023/09/28 03:46:20;;;;;;;9.97;6.00;;;12.30;99.90;;;;;;4192032;28;20040;-62
2023/09/28 03:48:21;;;;;;;11.60;6.03;;;12.30;99.90;;;;;;4191348;28;20488;-62
2023/09/28 03:50:23;;;;;;;12.67;6.60;;;12.30;99.90;;;;;;4175586;28;20087;-62
2023/09/28 03:52:24;;;;;;;12.33;6.67;;;12.20;99.90;;;;;;4183207;28;20090;-60
2023/09/28 03:54:26;;;;;;;11.17;6.30;;;12.20;99.90;;;;;;4193724;28;20395;-62
2023/09/28 03:56:28;;;;;;;12.13;6.13;;;12.10;99.90;;;;;;4186659;28;20044;-60
2023/09/28 03:58:29;;;;;;;13.17;6.50;;;12.10;99.90;;;;;;4192586;28;20500;-61
2023/09/28 04:00:30;;;;;;;11.00;6.77;;;12.10;99.90;;;;;;4187822;28;20555;-60
2023/09/28 04:02:31;;;;;;;14.37;6.57;;;12.10;99.90;;;;;;4193277;28;20085;-62
2023/09/28 04:04:32;;;;;;;12.93;6.57;;;12.00;99.90;;;;;;4191417;28;20067;-62
2023/09/28 04:06:33;;;;;;;18.00;7.53;;;12.00;99.90;;;;;;4190445;28;20450;-61
2023/09/28 04:08:34;;;;;;;10.10;5.93;;;11.90;99.90;;;;;;4192290;28;20037;-61
2023/09/28 04:10:35;;;;;;;9.53;6.10;;;11.90;99.90;;;;;;4191790;28;20458;-62
2023/09/28 04:12:37;;;;;;;12.23;6.60;;;11.80;99.90;;;;;;4192823;28;20033;-60
2023/09/28 04:14:38;;;;;;;12.53;6.83;;;11.80;99.90;;;;;;4191582;28;20044;-59
2023/09/28 04:16:39;;;;;;;8.13;6.73;;;11.80;99.90;;;;;;4190435;28;20032;-60
2023/09/28 04:18:40;;;;;;;11.23;6.63;;;11.80;99.90;;;;;;4187808;28;20045;-60
2023/09/28 04:20:41;;;;;;;12.30;6.63;;;11.80;99.90;;;;;;4194580;28;20052;-60
2023/09/28 04:22:43;;;;;;;13.63;6.60;;;11.90;99.90;;;;;;4192427;28;20135;-61
2023/09/28 04:24:44;;;;;;;11.33;6.80;;;11.90;99.90;;;;;;4193389;28;20476;-59
2023/09/28 04:26:45;;;;;;;13.70;6.83;;;12.00;99.90;;;;;;4192268;28;20065;-61
2023/09/28 04:28:46;;;;;;;10.33;6.40;;;12.00;99.90;;;;;;4192137;28;20040;-61
2023/09/28 04:30:47;;;;;;;14.70;6.90;;;12.00;99.90;;;;;;4192039;28;20123;-62
2023/09/28 04:32:50;;;;;;;12.50;7.00;;;12.00;99.90;;;;;;4193030;28;20118;-62
2023/09/28 04:34:51;;;;;;;12.83;7.30;;;12.10;99.90;;;;;;4192027;28;20049;-60
2023/09/28 04:36:53;;;;;;;10.67;7.73;;;12.10;99.90;;;;;;4192413;28;20028;-57
2023/09/28 04:38:54;;;;;;;12.47;7.30;;;12.10;99.90;;;;;;4192605;28;20099;-60
2023/09/28 04:40:55;;;;;;;11.43;7.03;;;12.20;99.90;;;;;;4191961;28;20037;-60
2023/09/28 04:42:56;;;;;;;15.07;7.70;;;12.30;99.90;;;;;;4192992;28;20071;-60
2023/09/28 04:44:57;;;;;;;12.53;6.83;;;12.40;99.90;;;;;;4190034;28;20048;-60
2023/09/28 04:46:58;;;;;;;16.47;7.17;;;12.60;99.90;;;;;;4191744;28;20028;-58
2023/09/28 04:48:59;;;;;;;12.70;6.87;;;12.90;99.90;;;;;;4190467;28;20106;-60
2023/09/28 04:51:00;;;;;;;10.90;6.77;;;12.90;99.90;;;;;;4192897;28;20423;-60
2023/09/28 04:53:02;;;;;;;13.57;6.47;;;12.90;99.90;;;;;;4191443;28;20036;-60
2023/09/28 04:55:03;;;;;;;12.67;7.17;;;13.00;99.90;;;;;;4192530;28;20473;-61
2023/09/28 04:57:05;;;;;;;15.83;7.93;;;13.10;99.90;;;;;;4191487;28;20099;-61
2023/09/28 04:59:06;;;;;;;13.23;7.67;;;13.30;99.90;;;;;;4193487;28;20387;-62
2023/09/28 05:01:07;;;;;;;12.43;7.93;;;13.70;99.90;;;;;;4192169;28;20013;-60
2023/09/28 05:03:09;;;;;;;17.73;7.00;;;14.10;99.90;;;;;;4192100;28;20481;-60
2023/09/28 05:05:10;;;;;;;11.30;6.37;;;14.50;99.90;;;;;;4191919;28;20047;-61
2023/09/28 05:07:12;;;;;;;15.10;6.95;;;14.80;99.90;;;;;;4192545;28;20082;-60
2023/09/28 05:09:13;;;;;;;12.15;6.32;;;15.10;99.90;;;;;;4191795;28;20040;-60
2023/09/28 05:11:14;;;;;;;14.90;7.07;;;15.20;99.90;;;;;;4192292;28;20044;-60
2023/09/28 05:13:15;;;;;;;15.82;6.43;;;15.40;99.90;;;;;;4192433;28;20090;-61
2023/09/28 05:15:16;;;;;;;11.27;6.30;;;15.60;99.90;;;;;;4190828;28;20121;-60
2023/09/28 05:17:18;;;;;;;11.43;6.30;;;16.00;99.90;;;;;;4193784;28;20074;-62
2023/09/28 05:19:19;;;;;;;13.82;6.50;;;16.30;99.90;;;;;;4194156;28;20053;-60
2023/09/28 05:21:20;;;;;;;11.88;5.90;;;16.70;99.90;;;;;;4196240;28;20037;-60
2023/09/28 05:23:21;;;;;;;14.30;6.53;;;17.10;99.90;;;;;;4193893;28;20479;-60
2023/09/28 05:25:23;;;;;;;10.30;5.63;;;17.20;99.90;;;;;;4195400;28;20040;-61
2023/09/28 05:27:24;;;;;;;10.90;5.35;;;17.40;99.90;;;;;;4193744;28;20053;-61
2023/09/28 05:29:27;;;;;;;10.05;5.45;;;17.70;99.90;;;;;;4195429;28;20029;-61
2023/09/28 05:31:28;;;;;;;7.82;5.25;;;17.90;99.90;;;;;;4194201;28;20565;-60
2023/09/28 05:33:29;;;;;;;14.23;6.38;;;18.00;99.90;;;;;;4193782;28;20041;-60
2023/09/28 05:35:30;;;;;;;11.20;5.63;;;18.00;99.90;;;;;;4189462;28;20052;-62
2023/09/28 05:37:32;;;;;;;8.75;5.93;;;17.90;99.90;;;;;;4189396;28;20040;-61
2023/09/28 05:39:33;;;;;;;10.02;5.45;;;17.80;99.90;;;;;;4190656;28;20033;-62
2023/09/28 05:41:34;;;;;;;11.20;5.65;;;17.80;99.90;;;;;;4194984;28;20097;-61
2023/09/28 05:43:35;;;;;;;11.07;7.00;;;17.90;99.90;;;;;;4195069;28;20085;-62
2023/09/28 05:45:38;;;;;;;10.70;5.40;;;18.10;99.90;;;;;;4194564;28;20108;-60
2023/09/28 05:47:39;;;;;;;13.43;5.82;;;18.20;99.90;;;;;;4194717;28;20086;-62
2023/09/28 05:49:42;;;;;;;14.38;6.28;;;18.30;99.90;;;;;;4193971;28;20075;-62
2023/09/28 05:51:44;;;;;;;11.90;5.32;;;18.50;99.90;;;;;;4195328;28;20044;-60
2023/09/28 05:53:45;;;;;;;13.80;5.97;;;18.40;99.90;;;;;;4193495;28;20046;-60
2023/09/28 05:55:47;;;;;;;8.80;4.88;;;18.50;99.90;;;;;;4194575;28;20481;-61
2023/09/28 05:57:48;;;;;;;9.57;5.38;;;18.50;99.90;;;;;;4194245;28;20028;-61
2023/09/28 05:59:50;;;;;;;11.60;5.88;;;18.80;99.90;;;;;;4195111;28;20090;-60
2023/09/28 06:01:51;;;;;;;9.23;5.60;;;18.80;99.90;;;;;;4194439;28;20444;-60
2023/09/28 06:03:52;;;;;;;17.23;5.80;;;19.30;99.90;;;;;;4194734;28;20062;-60
2023/09/28 06:05:53;;;;;;;10.57;4.95;;;19.90;99.90;;;;;;4194096;28;20142;-60
2023/09/28 06:07:54;;;;;;;8.75;4.32;;;20.50;99.90;;;;;;4195208;28;20082;-61
2023/09/28 06:09:56;;;;;;;11.32;5.57;;;21.10;99.90;;;;;;4193592;28;20472;-61
2023/09/28 06:11:57;;;;;;;8.38;5.45;;;21.70;99.90;;;;;;4194545;28;20033;-61
2023/09/28 06:13:58;;;;;;;9.88;5.50;;;22.40;99.90;;;;;;4194268;28;20056;-61
2023/09/28 06:16:00;;;;;;;6.50;4.38;;;22.70;99.90;;;;;;4193464;28;20089;-60
2023/09/28 06:18:07;;;;;;;8.45;5.03;;;22.70;99.90;;;;;;4044819;28;20032;-61
2023/09/28 06:20:14;;;;;;;9.70;5.22;;;22.70;99.90;;;;;;4039465;28;20122;-62
2023/09/28 06:22:15;;;;;;;8.30;4.90;;;22.90;99.90;;;;;;3996515;28;20771;-60
2023/09/28 06:24:16;;;;;;;8.50;4.45;;;23.10;99.90;;;;;;4044453;28;20118;-61
2023/09/28 06:26:20;;;;;;;11.02;5.65;;;23.20;99.80;;;;;;4030838;28;20044;-60
2023/09/28 06:28:24;;;;;;;9.20;5.15;;;23.30;99.40;;;;;;4187317;28;20036;-60
2023/09/28 06:30:25;;;;;;;7.82;4.93;;;23.70;99.10;;;;;;4195694;28;20412;-60
2023/09/28 06:32:26;;;;;;;11.40;4.60;;;23.60;98.70;;;;;;4194017;28;20090;-60
2023/09/28 06:34:27;;;;;;;12.18;5.18;;;23.70;98.40;;;;;;4193501;28;20036;-60
2023/09/28 06:36:29;;;;;;;11.40;4.55;;;23.90;98.20;;;;;;4192879;28;20082;-61
2023/09/28 06:38:30;;;;;;;7.90;4.82;;;23.70;97.90;;;;;;4194765;28;20134;-60
2023/09/28 06:40:31;;;;;;;8.52;4.90;;;23.40;98.10;;;;;;4192378;28;20024;-60
2023/09/28 06:42:32;;;;;;;8.05;5.30;;;23.60;97.80;;;;;;4193138;28;20443;-61
2023/09/28 06:44:36;;;;;;;9.45;5.53;;;23.90;97.40;;;;;;4193660;28;20029;-62
2023/09/28 06:46:37;;;;;;;6.65;4.28;;;24.20;97.10;;;;;;4188859;28;20032;-61
2023/09/28 06:48:39;;;;;;;10.80;4.68;;;24.30;96.80;;;;;;4194424;28;20496;-61
2023/09/28 06:50:40;;;;;;;9.52;4.60;;;24.60;96.40;;;;;;4193186;28;20098;-61
2023/09/28 06:52:41;;;;;;;10.70;4.53;;;23.90;96.30;;;;;;4194011;28;20037;-62
2023/09/28 06:54:42;;;;;;;7.28;4.07;;;23.50;96.70;;;;;;4191876;28;20098;-60
2023/09/28 06:56:45;;;;;;;9.55;5.30;;;23.40;96.90;;;;;;4194761;28;20032;-62
2023/09/28 06:58:46;;;;;;;12.93;5.80;;;23.30;96.90;;;;;;4192889;28;20095;-62
2023/09/28 07:00:47;;;;;;;13.05;5.20;;;23.40;97.00;;;;;;4194138;28;20091;-61
2023/09/28 07:02:50;;;;;;;9.35;5.47;;;23.40;96.70;;;;;;4193336;28;20032;-61
2023/09/28 07:04:52;;;;;;;8.18;4.72;;;23.60;96.60;;;;;;4193105;28;20040;-62
2023/09/28 07:06:53;;;;;;;12.35;4.70;;;23.30;96.60;;;;;;4192853;28;20082;-61
2023/09/28 07:08:54;;;;;;;17.02;5.63;;;23.60;96.40;;;;;;4193346;28;20086;-62
2023/09/28 07:10:55;;;;;;;6.95;4.20;;;23.60;96.30;;;;;;4192351;28;20077;-61
2023/09/28 07:12:56;;;;;;;10.38;4.35;;;23.60;96.10;;;;;;4192617;28;20048;-62
2023/09/28 07:14:57;;;;;;;9.77;4.93;;;23.50;96.00;;;;;;4193523;28;20036;-62
2023/09/28 07:16:59;;;;;;;10.18;4.63;;;23.20;96.30;;;;;;4193574;28;20025;-61
2023/09/28 07:19:03;;;;;;;10.75;5.25;;;23.10;96.40;;;;;;4193485;28;20091;-64
2023/09/28 07:21:04;;;;;;;14.32;5.07;;;22.80;96.60;;;;;;4190948;28;20193;-62
2023/09/28 07:23:05;;;;;;;8.57;4.63;;;22.80;96.80;;;;;;4193610;28;20201;-61
2023/09/28 07:25:09;;;;;;;16.83;6.50;;;23.00;96.70;;;;;;4191938;28;20472;-61
2023/09/28 07:27:10;;;;;;;12.98;5.05;;;23.10;96.50;;;;;;4175645;28;20119;-62
2023/09/28 07:29:12;;;;;;;13.85;6.40;;;23.40;96.40;;;;;;4193374;28;20024;-62
2023/09/28 07:31:15;;;;;;;11.82;5.30;;;23.70;96.10;;;;;;4193995;28;20044;-62
2023/09/28 07:33:16;;;;;;;9.45;5.72;;;23.90;95.80;;;;;;4193368;28;20040;-61
2023/09/28 07:35:20;;;;;;;11.90;5.13;;;24.30;95.50;;;;;;4193915;28;20044;-62
2023/09/28 07:37:21;;;;;;;14.43;4.90;;;24.40;95.30;;;;;;4193271;28;20101;-61
2023/09/28 07:39:23;;;;;;;8.77;4.95;;;24.40;95.40;;;;;;4193096;28;20098;-63
2023/09/28 07:41:24;;;;;;;13.95;5.50;;;24.40;95.20;;;;;;4191358;28;20113;-62
2023/09/28 07:43:25;;;;;;;11.90;4.80;;;24.60;94.90;;;;;;4193005;28;20048;-62
2023/09/28 07:45:26;;;;;;;7.13;4.90;;;24.70;94.70;;;;;;4193293;28;20105;-62
2023/09/28 07:47:28;;;;;;;10.82;5.03;;;24.70;94.60;;;;;;4192698;28;20434;-63
2023/09/28 07:49:29;;;;;;;12.77;4.57;;;24.40;94.80;;;;;;4193131;28;20098;-61
2023/09/28 07:51:31;;;;;;;9.30;5.30;;;24.50;94.70;;;;;;4192575;28;20098;-63
2023/09/28 07:53:32;;;;;;;20.13;7.03;;;25.00;94.40;;;;;;4193890;28;20082;-62
2023/09/28 07:55:34;;;;;;;14.82;7.13;;;24.90;94.10;;;;;;4191823;28;20105;-61
2023/09/28 07:57:36;;;;;;;13.20;5.30;;;24.80;94.20;;;;;;4193519;28;20029;-61
2023/09/28 07:59:37;;;;;;;16.63;5.47;;;24.90;94.20;;;;;;4191988;28;20041;-63
2023/09/28 08:01:39;;;;;;;27.33;7.60;;;25.00;93.90;;;;;;4192809;28;20082;-62
2023/09/28 08:03:40;;;;;;;16.90;7.32;;;24.60;93.90;;;;;;4192775;28;20036;-61
2023/09/28 08:05:41;;;;;;;13.63;6.22;;;24.00;94.20;;;;;;4193434;28;20037;-60
2023/09/28 08:07:42;;;;;;;14.52;5.85;;;23.40;94.40;;;;;;4191305;28;20424;-62
2023/09/28 08:09:43;;;;;;;16.40;6.55;;;23.10;94.60;;;;;;4192583;28;20483;-62
2023/09/28 08:11:48;;;;;;;15.95;5.88;;;23.00;94.70;;;;;;4191138;28;20032;-63
2023/09/28 08:13:50;;;;;;;16.48;6.07;;;22.60;94.90;;;;;;4192126;28;20037;-60
2023/09/28 08:15:51;;;;;;;18.80;6.00;;;22.70;95.30;;;;;;4190526;28;21159;-61
2023/09/28 08:17:52;;;;;;;9.20;5.45;;;22.70;95.10;;;;;;4192443;28;20032;-62
2023/09/28 08:19:53;;;;;;;15.48;5.78;;;22.80;95.00;;;;;;4191400;28;20082;-60
2023/09/28 08:21:54;;;;;;;10.70;5.43;;;23.00;94.90;;;;;;4191496;28;20482;-61
2023/09/28 08:23:55;;;;;;;12.85;6.35;;;23.10;94.80;;;;;;4192951;28;20032;-62
2023/09/28 08:25:56;;;;;;;14.38;6.20;;;23.00;95.00;;;;;;4190846;28;20500;-62
2023/09/28 08:27:58;;;;;;;15.48;6.35;;;23.00;95.20;;;;;;4192461;28;20049;-62
2023/09/28 08:30:00;;;;;;;12.40;5.82;;;23.00;95.00;;;;;;4191219;28;20036;-64
2023/09/28 08:32:01;;;;;;;12.05;5.53;;;23.00;95.00;;;;;;4193460;28;20059;-60
2023/09/28 08:34:03;;;;;;;14.27;6.47;;;22.90;94.90;;;;;;4188367;28;20025;-61
2023/09/28 08:36:08;;;;;;;13.18;6.38;;;22.80;95.00;;;;;;4192355;28;20118;-62
2023/09/28 08:38:09;;;;;;;11.93;5.78;;;22.90;94.90;;;;;;4191059;28;20040;-62
2023/09/28 08:40:10;;;;;;;12.48;5.43;;;23.00;95.00;;;;;;4192691;28;20104;-62
2023/09/28 08:42:15;;;;;;;16.70;5.47;;;23.10;94.80;;;;;;4188625;28;21148;-60
2023/09/28 08:44:16;;;;;;;15.70;5.63;;;23.30;94.50;;;;;;4176142;28;20037;-59
2023/09/28 08:46:22;;;;;;;10.20;5.18;;;23.20;94.40;;;;;;4185579;28;20546;-61
2023/09/28 08:48:26;;;;;;;9.93;5.80;;;22.70;94.60;;;;;;4193695;28;20020;-60
2023/09/28 08:50:48;;;;;;;10.20;5.70;;;22.50;94.90;;;;;;4190984;28;20036;-57
2023/09/28 08:52:54;;;;;;;9.82;5.43;;;22.30;94.70;;;;;;4179359;28;20040;-57
2023/09/28 08:54:56;;;;;;;12.25;5.40;;;22.30;95.00;;;;;;4194476;28;20388;-60
2023/09/28 08:56:59;;;;;;;11.25;5.68;;;22.40;95.00;;;;;;4194102;28;20066;-59
2023/09/28 08:59:02;;;;;;;10.93;5.07;;;22.60;95.00;;;;;;4194547;28;20102;-60
2023/09/28 09:01:06;;;;;;;16.02;6.97;;;22.80;94.80;;;;;;4195493;28;20105;-60
2023/09/28 09:03:08;;;;;;;10.88;5.60;;;23.10;94.60;;;;;;4195158;28;20048;-60
2023/09/28 09:05:13;;;;;;;11.43;4.82;;;22.90;94.30;;;;;;4195096;28;20144;-60
2023/09/28 09:07:15;;;;;;;12.27;4.35;;;22.80;94.20;;;;;;4196279;28;20040;-61
2023/09/28 09:09:18;;;;;;;11.10;4.65;;;22.70;94.20;;;;;;4194885;28;20040;-60
2023/09/28 09:11:20;;;;;;;18.23;5.22;;;22.60;94.30;;;;;;4195754;28;20388;-60
2023/09/28 09:13:22;;;;;;;7.93;4.57;;;22.50;94.40;;;;;;4195578;28;20017;-59
2023/09/28 09:15:24;;;;;;;10.75;5.28;;;22.50;94.40;;;;;;4194288;28;20052;-60
2023/09/28 09:17:36;;;;;;;8.52;5.78;;;22.70;94.20;;;;;;4194080;28;20045;-59
2023/09/28 09:19:37;;;;;;;8.27;4.25;;;22.80;93.90;;;;;;4195200;28;20032;-59
2023/09/28 09:21:40;;;;;;;15.68;5.82;;;22.70;94.10;;;;;;4193803;28;20040;-59
2023/09/28 09:23:41;;;;;;;7.00;4.32;;;22.50;94.20;;;;;;4194988;28;20373;-60
2023/09/28 09:25:53;;;;;;;13.43;5.10;;;22.50;94.30;;;;;;4193815;28;20044;-60
2023/09/28 09:27:54;;;;;;;8.70;4.60;;;22.60;94.30;;;;;;4195702;28;20074;-60
2023/09/28 09:30:08;;;;;;;11.48;4.82;;;22.50;94.40;;;;;;4194880;28;20032;-60
2023/09/28 09:32:13;;;;;;;11.23;4.78;;;22.60;94.40;;;;;;4195660;28;20044;-61
2023/09/28 09:34:18;;;;;;;7.75;4.50;;;22.60;94.40;;;;;;4194152;28;20487;-59
2023/09/28 09:36:19;;;;;;;11.02;4.53;;;22.60;94.40;;;;;;4196158;28;20037;-59
2023/09/28 09:38:27;;;;;;;11.93;4.53;;;22.80;94.30;;;;;;4194781;28;20471;-60
2023/09/28 09:40:28;;;;;;;12.68;4.72;;;22.90;94.20;;;;;;4195985;28;20032;-60
2023/09/28 09:42:30;;;;;;;8.68;4.68;;;23.10;94.10;;;;;;4194922;28;20075;-59
2023/09/28 09:44:31;;;;;;;13.52;5.57;;;23.20;93.90;;;;;;4195544;28;20036;-59
2023/09/28 09:46:33;;;;;;;11.13;5.32;;;23.20;93.90;;;;;;4193785;28;20029;-59
2023/09/28 09:48:42;;;;;;;10.52;5.20;;;23.30;94.00;;;;;;4195172;28;20083;-60
2023/09/28 09:50:43;;;;;;;14.65;4.63;;;23.20;93.80;;;;;;4195047;28;20025;-60
2023/09/28 09:52:44;;;;;;;19.20;5.20;;;23.30;93.80;;;;;;4194903;28;20086;-58
2023/09/28 09:54:47;;;;;;;12.18;4.95;;;23.40;93.80;;;;;;4194250;28;20464;-60
2023/09/28 09:56:50;;;;;;;25.67;7.32;;;23.60;94.00;;;;;;4193271;28;20033;-60
2023/09/28 09:58:55;;;;;;;15.98;5.70;;;23.80;93.90;;;;;;4194943;28;20036;-60
2023/09/28 10:01:00;;;;;;;11.15;4.63;;;24.20;93.70;;;;;;4193658;28;20737;-60
2023/09/28 10:03:03;;;;;;;8.95;3.72;;;24.40;93.70;;;;;;4194748;28;20029;-60
2023/09/28 10:05:12;;;;;;;19.88;5.38;;;24.60;93.20;;;;;;4193141;28;20037;-60
2023/09/28 10:07:16;;;;;;;11.20;4.78;;;24.60;93.10;;;;;;4195201;28;20021;-60
2023/09/28 10:09:18;;;;;;;11.27;4.43;;;24.70;93.30;;;;;;4193905;28;20074;-60
2023/09/28 10:11:20;;;;;;;7.57;4.47;;;24.80;93.10;;;;;;4195085;28;20078;-60
2023/09/28 10:13:22;;;;;;;12.95;4.40;;;24.80;92.80;;;;;;4192001;28;20036;-60
2023/09/28 10:15:24;;;;;;;12.27;4.13;;;24.80;92.60;;;;;;4193299;28;20044;-60
2023/09/28 10:17:28;;;;;;;8.15;4.45;;;24.80;92.50;;;;;;4190370;28;20429;-60
2023/09/28 10:19:30;;;;;;;8.52;4.07;;;24.90;92.60;;;;;;4181285;28;20512;-61
2023/09/28 10:21:39;;;;;;;7.40;4.20;;;24.80;92.50;;;;;;4192575;28;20086;-61
2023/09/28 10:23:40;;;;;;;9.70;4.57;;;24.90;92.00;;;;;;4195041;28;20077;-60
2023/09/28 10:25:56;;;;;;;8.60;4.10;;;24.60;92.40;;;;;;4193023;28;20124;-59
2023/09/28 10:27:58;;;;;;;13.82;4.72;;;24.40;92.40;;;;;;4191890;28;20550;-61
2023/09/28 10:30:20;;;;;;;7.10;3.85;;;24.40;92.60;;;;;;4193806;28;20049;-61